createdAt,value
2023-04-10T00:01:36.335Z,8.85
2023-04-10T00:04:03.494Z,8.72
2023-04-10T00:06:30.394Z,8.82
2023-04-10T00:08:57.205Z,8.56
2023-04-10T00:11:25.171Z,8.17
2023-04-10T00:13:51.858Z,8.06
2023-04-10T00:16:18.546Z,8.24
2023-04-10T00:18:45.075Z,8.05
2023-04-10T00:21:11.590Z,8.16
2023-04-10T00:23:38.069Z,7.85
2023-04-10T00:26:04.837Z,7.88
2023-04-10T00:28:31.326Z,8.22
2023-04-10T00:30:57.809Z,8.21
2023-04-10T00:33:24.306Z,8.36
2023-04-10T00:35:50.889Z,8.28
2023-04-10T00:38:17.387Z,8.33
2023-04-10T00:40:43.948Z,8.19
2023-04-10T00:43:10.818Z,7.78
2023-04-10T00:45:37.405Z,8.06
2023-04-10T00:48:04.194Z,7.67
2023-04-10T00:50:30.742Z,8.02
2023-04-10T00:52:58.520Z,7.76
2023-04-10T00:55:25.756Z,8.00
2023-04-10T00:57:52.336Z,7.95
2023-04-10T01:00:19.048Z,7.70
2023-04-10T01:02:45.786Z,7.64
2023-04-10T01:05:13.696Z,8.09
2023-04-10T01:08:08.333Z,7.99
2023-04-10T01:10:58.147Z,7.75
2023-04-10T01:13:41.880Z,7.65
2023-04-10T01:16:20.434Z,7.86
2023-04-10T01:18:57.110Z,7.58
2023-04-10T01:21:25.786Z,7.87
2023-04-10T01:24:29.492Z,7.61
2023-04-10T01:27:14.753Z,7.36
2023-04-10T01:29:47.796Z,7.80
2023-04-10T01:32:20.286Z,7.46
2023-04-10T01:34:51.094Z,7.54
2023-04-10T01:37:25.482Z,7.72
2023-04-10T01:40:01.001Z,7.41
2023-04-10T01:42:32.417Z,7.48
2023-04-10T01:45:01.319Z,7.43
2023-04-10T01:47:28.221Z,7.37
2023-04-10T01:49:57.188Z,7.66
2023-04-10T01:52:25.064Z,7.25
2023-04-10T01:54:53.812Z,7.22
2023-04-10T01:57:21.400Z,7.52
2023-04-10T01:59:47.897Z,7.44
2023-04-10T02:02:14.460Z,7.77
2023-04-10T02:04:41.071Z,7.85
2023-04-10T02:07:30.848Z,7.50
2023-04-10T02:10:31.923Z,7.67
2023-04-10T02:13:04.507Z,7.81
2023-04-10T02:15:32.741Z,7.67
2023-04-10T02:18:02.163Z,7.65
2023-04-10T02:20:28.933Z,7.46
2023-04-10T02:22:56.330Z,7.66
2023-04-10T02:25:23.108Z,7.34
2023-04-10T02:27:49.612Z,7.52
2023-04-10T02:30:16.134Z,7.61
2023-04-10T02:32:42.754Z,7.55
2023-04-10T02:35:09.484Z,7.85
2023-04-10T02:37:36.011Z,7.63
2023-04-10T02:40:02.548Z,7.99
2023-04-10T02:42:29.012Z,7.66
2023-04-10T02:44:55.893Z,7.51
2023-04-10T02:47:22.446Z,7.93
2023-04-10T02:49:49.053Z,7.69
2023-04-10T02:52:15.570Z,7.38
2023-04-10T02:54:42.190Z,8.05
2023-04-10T02:57:08.708Z,7.77
2023-04-10T02:59:35.163Z,7.83
2023-04-10T03:02:01.700Z,7.43
2023-04-10T03:04:28.310Z,7.48
2023-04-10T03:06:54.812Z,7.67
2023-04-10T03:09:21.327Z,7.36
2023-04-10T03:11:47.800Z,7.58
2023-04-10T03:14:14.360Z,7.72
2023-04-10T03:16:41.077Z,8.22
2023-04-10T03:19:07.692Z,7.85
2023-04-10T03:21:34.214Z,7.71
2023-04-10T03:24:00.740Z,8.01
2023-04-10T03:26:27.797Z,7.46
2023-04-10T03:28:54.311Z,7.63
2023-04-10T03:31:20.908Z,7.70
2023-04-10T03:33:47.472Z,7.69
2023-04-10T03:36:14.047Z,7.68
2023-04-10T03:38:40.627Z,7.60
2023-04-10T03:41:07.267Z,7.87
2023-04-10T03:43:33.772Z,8.10
2023-04-10T03:46:00.265Z,7.84
2023-04-10T03:48:26.792Z,7.52
2023-04-10T03:50:54.450Z,7.98
2023-04-10T03:53:20.972Z,7.78
2023-04-10T03:55:47.501Z,7.78
2023-04-10T03:58:14.005Z,7.91
2023-04-10T04:00:40.588Z,7.67
2023-04-10T04:03:07.297Z,7.64
2023-04-10T04:05:34.058Z,7.93
2023-04-10T04:08:00.584Z,8.25
2023-04-10T04:10:27.058Z,7.89
2023-04-10T04:12:53.524Z,8.19
2023-04-10T04:15:19.981Z,7.95
2023-04-10T04:17:46.521Z,7.74
2023-04-10T04:20:13.071Z,7.56
2023-04-10T04:22:39.586Z,8.08
2023-04-10T04:25:06.312Z,8.21
2023-04-10T04:27:32.809Z,8.39
2023-04-10T04:29:59.293Z,8.28
2023-04-10T04:32:28.084Z,8.30
2023-04-10T04:34:54.653Z,8.16
2023-04-10T04:37:21.181Z,8.27
2023-04-10T04:39:47.652Z,8.36
2023-04-10T04:42:14.173Z,8.38
2023-04-10T04:44:40.630Z,8.02
2023-04-10T04:47:07.094Z,8.53
2023-04-10T04:49:33.555Z,8.47
2023-04-10T04:51:59.995Z,8.13
2023-04-10T04:54:26.502Z,8.13
2023-04-10T04:56:52.968Z,8.64
2023-04-10T04:59:19.442Z,8.82
2023-04-10T05:01:45.988Z,8.53
2023-04-10T05:04:12.799Z,8.42
2023-04-10T05:06:39.381Z,8.60
2023-04-10T05:09:05.823Z,8.53
2023-04-10T05:11:32.327Z,8.38
2023-04-10T05:14:00.181Z,8.78
2023-04-10T05:16:26.641Z,8.82
2023-04-10T05:18:53.285Z,8.56
2023-04-10T05:21:20.053Z,8.47
2023-04-10T05:23:46.565Z,8.28
2023-04-10T05:26:13.025Z,8.10
2023-04-10T05:28:39.471Z,8.24
2023-04-10T05:31:06.285Z,8.20
2023-04-10T05:33:32.805Z,8.02
2023-04-10T05:35:59.343Z,8.87
2023-04-10T05:38:25.867Z,9.01
2023-04-10T05:40:52.388Z,8.60
2023-04-10T05:43:18.871Z,8.86
2023-04-10T05:45:45.325Z,8.99
2023-04-10T05:48:11.878Z,8.95
2023-04-10T05:50:38.430Z,8.79
2023-04-10T05:53:04.909Z,8.60
2023-04-10T05:55:31.767Z,8.76
2023-04-10T05:57:58.230Z,9.08
2023-04-10T06:00:24.793Z,8.78
2023-04-10T06:02:51.374Z,8.47
2023-04-10T06:05:17.990Z,8.38
2023-04-10T06:07:45.540Z,8.71
2023-04-10T06:10:12.042Z,8.80
2023-04-10T06:12:38.550Z,8.97
2023-04-10T06:15:05.395Z,9.35
2023-04-10T06:17:32.008Z,8.93
2023-04-10T06:19:58.617Z,8.66
2023-04-10T06:22:25.273Z,9.83
2023-04-10T06:24:51.765Z,9.91
2023-04-10T06:27:18.338Z,10.05
2023-04-10T06:29:44.885Z,9.86
2023-04-10T06:32:11.348Z,9.91
2023-04-10T06:34:37.871Z,9.98
2023-04-10T06:37:04.352Z,10.27
2023-04-10T06:39:30.857Z,10.14
2023-04-10T06:41:57.348Z,10.53
2023-04-10T06:44:23.812Z,10.17
2023-04-10T06:46:50.352Z,10.40
2023-04-10T06:49:16.890Z,10.24
2023-04-10T06:51:44.865Z,9.98
2023-04-10T06:54:11.506Z,9.78
2023-04-10T06:56:37.968Z,9.69
2023-04-10T06:59:04.455Z,10.21
2023-04-10T07:01:30.950Z,9.79
2023-04-10T07:03:57.554Z,10.39
2023-04-10T07:06:24.116Z,9.86
2023-04-10T07:08:50.615Z,9.80
2023-04-10T07:11:17.107Z,9.77
2023-04-10T07:13:43.594Z,9.63
2023-04-10T07:16:10.248Z,9.59
2023-04-10T07:18:36.753Z,9.49
2023-04-10T07:21:07.973Z,9.65
2023-04-10T07:23:34.475Z,9.40
2023-04-10T07:26:00.983Z,9.77
2023-04-10T07:28:27.495Z,9.37
2023-04-10T07:30:53.984Z,9.57
2023-04-10T07:33:20.711Z,9.40
2023-04-10T07:35:47.322Z,9.79
2023-04-10T07:38:13.817Z,9.08
2023-04-10T07:40:40.381Z,8.63
2023-04-10T07:43:06.913Z,8.50
2023-04-10T07:45:33.454Z,8.76
2023-04-10T07:48:00.082Z,8.89
2023-04-10T07:50:26.764Z,8.58
2023-04-10T07:52:53.253Z,8.70
2023-04-10T07:55:19.816Z,8.95
2023-04-10T07:57:46.280Z,8.45
2023-04-10T08:00:13.538Z,8.36
2023-04-10T08:02:40.336Z,8.12
2023-04-10T08:05:07.452Z,8.24
2023-04-10T08:07:33.987Z,7.95
2023-04-10T08:10:00.467Z,7.35
2023-04-10T08:12:27.005Z,7.32
2023-04-10T08:14:53.650Z,7.40
2023-04-10T08:17:20.199Z,7.85
2023-04-10T08:19:46.708Z,7.96
2023-04-10T08:22:13.401Z,7.46
2023-04-10T08:24:39.904Z,7.89
2023-04-10T08:27:06.406Z,7.72
2023-04-10T08:29:33.150Z,8.08
2023-04-10T08:31:59.731Z,7.67
2023-04-10T08:34:27.003Z,7.33
2023-04-10T08:36:54.501Z,7.78
2023-04-10T08:39:21.015Z,7.69
2023-04-10T08:41:47.568Z,8.16
2023-04-10T08:44:14.181Z,8.05
2023-04-10T08:46:45.108Z,7.53
2023-04-10T08:49:24.160Z,7.40
2023-04-10T08:51:59.033Z,7.59
2023-04-10T08:54:28.599Z,7.97
2023-04-10T08:56:56.274Z,7.77
2023-04-10T08:59:22.891Z,8.15
2023-04-10T09:01:49.540Z,7.94
2023-04-10T09:04:16.349Z,7.99
2023-04-10T09:06:42.902Z,7.74
2023-04-10T09:09:09.438Z,8.08
2023-04-10T09:11:54.093Z,7.49
2023-04-10T09:14:26.035Z,8.17
2023-04-10T09:16:54.252Z,8.12
2023-04-10T09:19:32.235Z,8.08
2023-04-10T09:21:59.005Z,8.18
2023-04-10T09:24:26.361Z,7.95
2023-04-10T09:26:53.366Z,8.42
2023-04-10T09:29:19.975Z,8.44
2023-04-10T09:31:46.780Z,7.77
2023-04-10T09:34:22.000Z,8.19
2023-04-10T09:36:56.403Z,8.04
2023-04-10T09:39:34.589Z,7.97
2023-04-10T09:42:01.197Z,7.74
2023-04-10T09:44:33.792Z,8.06
2023-04-10T09:47:20.914Z,7.78
2023-04-10T09:49:52.603Z,8.15
2023-04-10T09:52:26.647Z,8.36
2023-04-10T09:54:55.308Z,8.44
2023-04-10T09:57:23.844Z,8.17
2023-04-10T09:59:53.669Z,7.71
2023-04-10T10:02:22.735Z,8.01
2023-04-10T10:04:50.948Z,8.45
2023-04-10T10:07:20.067Z,8.32
2023-04-10T10:09:49.245Z,8.47
2023-04-10T10:12:22.618Z,8.19
2023-04-10T10:14:57.384Z,8.03
2023-04-10T10:17:31.752Z,8.07
2023-04-10T10:20:09.173Z,8.13
2023-04-10T10:22:37.737Z,8.38
2023-04-10T10:25:04.747Z,8.31
2023-04-10T10:27:33.456Z,8.38
2023-04-10T10:30:03.015Z,8.42
2023-04-10T10:32:34.165Z,8.52
2023-04-10T10:35:01.912Z,8.49
2023-04-10T10:37:30.032Z,9.66
2023-04-10T10:40:21.706Z,8.72
2023-04-10T10:43:33.983Z,7.89
2023-04-10T10:46:12.594Z,8.30
2023-04-10T10:48:39.163Z,8.72
2023-04-10T10:51:05.997Z,8.14
2023-04-10T10:53:43.633Z,7.68
2023-04-10T10:56:19.306Z,7.84
2023-04-10T10:58:50.169Z,7.75
2023-04-10T11:01:17.881Z,7.78
2023-04-10T11:03:45.177Z,7.48
2023-04-10T11:06:15.341Z,7.21
2023-04-10T11:08:44.610Z,7.75
2023-04-10T11:11:15.947Z,8.03
2023-04-10T11:13:51.559Z,8.06
2023-04-10T11:16:20.126Z,7.76
2023-04-10T11:18:48.253Z,7.49
2023-04-10T11:21:19.895Z,7.37
2023-04-10T11:23:52.194Z,7.58
2023-04-10T11:26:33.850Z,7.60
2023-04-10T11:29:26.579Z,7.39
2023-04-10T11:32:01.666Z,7.84
2023-04-10T11:34:28.512Z,7.73
2023-04-10T11:36:55.057Z,7.86
2023-04-10T11:39:21.624Z,7.59
2023-04-10T11:41:50.496Z,7.16
2023-04-10T11:44:37.184Z,7.52
2023-04-10T11:47:04.793Z,7.49
2023-04-10T11:49:33.392Z,7.26
2023-04-10T11:52:00.151Z,6.93
2023-04-10T11:54:28.363Z,6.61
2023-04-10T11:57:05.360Z,6.57
2023-04-10T11:59:33.802Z,6.60
2023-04-10T12:02:15.284Z,6.73
2023-04-10T12:04:44.098Z,6.11
2023-04-10T12:07:11.325Z,5.76
2023-04-10T12:09:37.955Z,6.16
2023-04-10T12:12:06.857Z,5.95
2023-04-10T12:14:42.789Z,5.73
2023-04-10T12:17:10.909Z,6.34
2023-04-10T12:19:41.046Z,5.77
2023-04-10T12:22:08.282Z,5.99
2023-04-10T12:24:41.608Z,5.61
2023-04-10T12:27:15.775Z,6.02
2023-04-10T12:29:42.362Z,5.83
2023-04-10T12:32:09.733Z,5.86
2023-04-10T12:34:40.136Z,5.50
2023-04-10T12:37:07.566Z,5.82
2023-04-10T12:39:34.131Z,5.95
2023-04-10T12:42:15.359Z,5.93
2023-04-10T12:44:59.840Z,5.50
2023-04-10T12:47:28.660Z,5.77
2023-04-10T12:50:06.200Z,5.79
2023-04-10T12:52:32.868Z,6.00
2023-04-10T12:55:14.397Z,5.53
2023-04-10T12:57:42.262Z,5.48
2023-04-10T13:00:10.859Z,5.74
2023-04-10T13:02:38.563Z,6.26
2023-04-10T13:05:06.694Z,6.39
2023-04-10T13:07:33.701Z,6.12
2023-04-10T13:10:00.309Z,6.20
2023-04-10T13:12:26.851Z,6.73
2023-04-10T13:14:54.151Z,6.90
2023-04-10T13:17:25.040Z,6.58
2023-04-10T13:19:52.015Z,6.47
2023-04-10T13:22:19.514Z,6.75
2023-04-10T13:24:46.266Z,6.59
2023-04-10T13:27:13.415Z,6.65
2023-04-10T13:29:42.032Z,6.57
2023-04-10T13:32:08.608Z,6.91
2023-04-10T13:34:35.810Z,6.67
2023-04-10T13:37:02.469Z,7.03
2023-04-10T13:39:30.657Z,7.33
2023-04-10T13:41:57.708Z,7.58
2023-04-10T13:44:24.297Z,7.43
2023-04-10T13:46:50.814Z,7.63
2023-04-10T13:49:17.398Z,7.86
2023-04-10T13:51:45.250Z,8.05
2023-04-10T13:54:11.776Z,8.20
2023-04-10T13:56:38.320Z,7.92
2023-04-10T13:59:05.452Z,7.70
2023-04-10T14:01:31.967Z,8.09
2023-04-10T14:03:58.585Z,8.04
2023-04-10T14:06:25.098Z,7.64
2023-04-10T14:08:51.619Z,8.24
2023-04-10T14:11:18.204Z,8.19
2023-04-10T14:13:44.682Z,7.91
2023-04-10T14:16:11.194Z,7.58
2023-04-10T14:18:37.686Z,7.71
2023-04-10T14:21:04.212Z,7.55
2023-04-10T14:23:30.696Z,7.97
2023-04-10T14:25:57.208Z,7.59
2023-04-10T14:28:23.680Z,7.76
2023-04-10T14:30:51.449Z,7.81
2023-04-10T14:33:20.056Z,8.05
2023-04-10T14:35:47.598Z,7.91
2023-04-10T14:38:14.145Z,7.98
2023-04-10T14:40:40.660Z,7.81
2023-04-10T14:43:07.508Z,7.62
2023-04-10T14:45:34.966Z,7.65
2023-04-10T14:48:01.541Z,7.81
2023-04-10T14:50:31.893Z,7.75
2023-04-10T14:52:58.808Z,7.81
2023-04-10T14:55:25.824Z,7.49
2023-04-10T14:57:52.339Z,7.57
2023-04-10T15:00:18.907Z,7.39
2023-04-10T15:02:45.804Z,6.99
2023-04-10T15:05:12.469Z,6.73
2023-04-10T15:07:38.951Z,7.37
2023-04-10T15:10:05.955Z,7.42
2023-04-10T15:12:32.428Z,7.50
2023-04-10T15:14:58.876Z,7.57
2023-04-10T15:17:25.431Z,7.53
2023-04-10T15:19:51.959Z,7.20
2023-04-10T15:22:18.407Z,7.24
2023-04-10T15:24:50.660Z,6.97
2023-04-10T15:27:21.552Z,7.54
2023-04-10T15:29:48.322Z,7.34
2023-04-10T15:32:14.823Z,8.00
2023-04-10T15:34:41.305Z,7.13
2023-04-10T15:37:07.784Z,7.17
2023-04-10T15:39:34.394Z,7.16
2023-04-10T15:42:00.843Z,7.13
2023-04-10T15:44:27.310Z,7.14
2023-04-10T15:46:53.795Z,7.30
2023-04-10T15:49:29.809Z,7.89
2023-04-10T15:52:00.833Z,7.94
2023-04-10T15:54:27.296Z,7.39
2023-04-10T15:56:53.799Z,7.61
2023-04-10T15:59:20.312Z,7.27
2023-04-10T16:01:46.871Z,7.53
2023-04-10T16:04:13.504Z,7.50
2023-04-10T16:06:40.135Z,7.42
2023-04-10T16:09:18.369Z,6.41
2023-04-10T16:11:51.175Z,6.67
2023-04-10T16:14:17.732Z,7.04
2023-04-10T16:16:44.728Z,7.39
2023-04-10T16:19:11.190Z,6.93
2023-04-10T16:21:37.785Z,6.77
2023-04-10T16:24:04.482Z,6.05
2023-04-10T16:26:30.974Z,6.44
2023-04-10T16:28:57.502Z,6.23
2023-04-10T16:31:24.238Z,5.70
2023-04-10T16:33:50.800Z,6.03
2023-04-10T16:36:17.539Z,6.74
2023-04-10T16:38:44.108Z,6.48
2023-04-10T16:41:10.660Z,6.78
2023-04-10T16:43:37.184Z,6.79
2023-04-10T16:46:03.784Z,6.96
2023-04-10T16:48:30.313Z,6.38
2023-04-10T16:50:56.794Z,5.45
2023-04-10T16:53:23.280Z,5.81
2023-04-10T16:56:00.030Z,5.94
2023-04-10T16:58:28.584Z,5.89
2023-04-10T17:00:55.389Z,7.06
2023-04-10T17:03:22.008Z,7.11
2023-04-10T17:05:48.566Z,6.95
2023-04-10T17:08:15.188Z,6.75
2023-04-10T17:10:41.700Z,6.66
2023-04-10T17:13:08.184Z,6.96
2023-04-10T17:15:35.411Z,6.95
2023-04-10T17:18:01.987Z,7.08
2023-04-10T17:20:28.580Z,7.30
2023-04-10T17:22:55.104Z,6.64
2023-04-10T17:25:21.663Z,6.35
2023-04-10T17:27:48.252Z,6.25
2023-04-10T17:30:14.814Z,6.07
2023-04-10T17:32:41.329Z,6.08
2023-04-10T17:35:08.446Z,6.37
2023-04-10T17:37:35.041Z,5.97
2023-04-10T17:40:02.001Z,7.29
2023-04-10T17:42:28.636Z,6.10
2023-04-10T17:44:55.184Z,6.18
2023-04-10T17:47:21.727Z,6.28
2023-04-10T17:49:48.210Z,6.30
2023-04-10T17:52:14.857Z,6.46
2023-04-10T17:54:41.385Z,6.50
2023-04-10T17:57:07.854Z,6.85
2023-04-10T17:59:34.351Z,7.00
2023-04-10T18:02:00.888Z,7.15
2023-04-10T18:04:27.521Z,6.93
2023-04-10T18:06:54.080Z,6.91
2023-04-10T18:09:20.655Z,7.07
2023-04-10T18:11:48.042Z,6.91
2023-04-10T18:14:14.749Z,6.94
2023-04-10T18:16:41.468Z,6.78
2023-04-10T18:19:08.084Z,6.60
2023-04-10T18:21:34.660Z,6.84
2023-04-10T18:24:01.194Z,7.35
2023-04-10T18:26:30.894Z,7.17
2023-04-10T18:28:57.661Z,6.45
2023-04-10T18:31:24.371Z,5.32
2023-04-10T18:34:03.704Z,5.09
2023-04-10T18:36:34.007Z,5.64
2023-04-10T18:39:00.564Z,5.56
2023-04-10T18:41:27.074Z,5.21
2023-04-10T18:44:01.847Z,5.14
2023-04-10T18:46:31.267Z,5.47
2023-04-10T18:48:57.821Z,5.13
2023-04-10T18:51:24.311Z,5.96
2023-04-10T18:53:50.839Z,5.81
2023-04-10T18:56:17.333Z,6.12
2023-04-10T18:58:43.796Z,5.70
2023-04-10T19:01:10.397Z,6.06
2023-04-10T19:03:37.095Z,5.72
2023-04-10T19:06:03.698Z,5.45
2023-04-10T19:08:30.275Z,5.05
2023-04-10T19:10:56.784Z,5.66
2023-04-10T19:13:23.344Z,5.90
2023-04-10T19:15:50.126Z,5.57
2023-04-10T19:18:16.820Z,5.37
2023-04-10T19:20:52.818Z,5.04
2023-04-10T19:23:19.994Z,4.88
2023-04-10T19:25:46.835Z,4.52
2023-04-10T19:28:13.356Z,4.48
2023-04-10T19:30:39.860Z,4.71
2023-04-10T19:33:06.339Z,4.33
2023-04-10T19:35:32.833Z,4.86
2023-04-10T19:37:59.333Z,4.72
2023-04-10T19:40:25.904Z,4.60
2023-04-10T19:42:52.524Z,4.10
2023-04-10T19:45:19.004Z,3.82
2023-04-10T19:47:45.530Z,3.76
2023-04-10T19:50:12.011Z,3.94
2023-04-10T19:52:38.479Z,3.87
2023-04-10T19:55:05.339Z,3.80
2023-04-10T19:57:31.811Z,3.59
2023-04-10T19:59:58.420Z,3.99
2023-04-10T20:02:25.017Z,4.14
2023-04-10T20:04:51.834Z,4.71
2023-04-10T20:07:18.418Z,5.02
2023-04-10T20:09:44.948Z,4.95
2023-04-10T20:12:11.409Z,4.73
2023-04-10T20:14:38.025Z,4.80
2023-04-10T20:17:04.495Z,5.65
2023-04-10T20:19:30.982Z,6.29
2023-04-10T20:24:37.902Z,6.40
2023-04-10T20:27:04.369Z,5.95
2023-04-10T20:29:30.854Z,5.41
2023-04-10T20:31:57.362Z,5.42
2023-04-10T20:34:23.900Z,5.20
2023-04-10T20:36:50.361Z,4.53
2023-04-10T20:39:16.865Z,4.49
2023-04-10T20:41:43.339Z,5.19
2023-04-10T20:44:09.814Z,4.56
2023-04-10T20:46:36.384Z,4.51
2023-04-10T20:49:03.298Z,4.34
2023-04-10T20:51:29.826Z,4.48
2023-04-10T20:53:56.283Z,4.51
2023-04-10T20:56:29.807Z,4.45
2023-04-10T20:59:03.113Z,4.75
2023-04-10T21:01:29.628Z,4.39
2023-04-10T21:03:56.212Z,4.33
2023-04-10T21:06:22.835Z,4.26
2023-04-10T21:08:49.297Z,4.15
2023-04-10T21:11:15.781Z,4.05
2023-04-10T21:13:42.242Z,3.79
2023-04-10T21:16:08.828Z,3.66
2023-04-10T21:18:35.484Z,3.67
2023-04-10T21:21:01.970Z,3.87
2023-04-10T21:23:28.423Z,4.05
2023-04-10T21:25:54.910Z,3.84
2023-04-10T21:28:21.504Z,3.85
2023-04-10T21:30:48.007Z,3.96
2023-04-10T21:33:14.797Z,3.79
2023-04-10T21:35:44.323Z,4.08
2023-04-10T21:38:11.753Z,3.88
2023-04-10T21:40:38.411Z,4.04
2023-04-10T21:43:05.200Z,4.30
2023-04-10T21:45:32.394Z,4.88
2023-04-10T21:47:58.897Z,5.24
2023-04-10T21:50:25.545Z,4.82
2023-04-10T21:52:52.010Z,4.79
2023-04-10T21:55:18.484Z,4.79
2023-04-10T21:57:44.990Z,4.67
2023-04-10T22:00:12.853Z,4.79
2023-04-10T22:02:39.703Z,4.57
2023-04-10T22:05:06.497Z,4.34
2023-04-10T22:07:33.185Z,4.48
2023-04-10T22:09:59.676Z,5.12
2023-04-10T22:12:26.188Z,5.29
2023-04-10T22:14:52.698Z,5.43
2023-04-10T22:17:19.209Z,6.26
2023-04-10T22:19:45.714Z,6.24
2023-04-10T22:22:12.186Z,6.59
2023-04-10T22:24:38.675Z,6.76
2023-04-10T22:27:05.154Z,6.57
2023-04-10T22:29:33.938Z,5.94
2023-04-10T22:32:00.429Z,5.77
2023-04-10T22:34:26.950Z,4.94
2023-04-10T22:36:53.414Z,4.43
2023-04-10T22:39:19.979Z,3.94
2023-04-10T22:41:46.461Z,4.01
2023-04-10T22:44:12.915Z,3.62
2023-04-10T22:46:39.495Z,3.92
2023-04-10T22:49:06.028Z,3.58
2023-04-10T22:51:32.481Z,3.50
2023-04-10T22:53:58.939Z,3.64
2023-04-10T22:56:25.459Z,3.76
2023-04-10T22:58:52.255Z,3.89
2023-04-10T23:01:18.900Z,4.48
2023-04-10T23:03:45.504Z,4.53
2023-04-10T23:06:12.079Z,4.35
2023-04-10T23:08:38.569Z,4.72
2023-04-10T23:11:05.363Z,4.59
2023-04-10T23:13:31.855Z,4.40
2023-04-10T23:15:58.383Z,4.31
2023-04-10T23:18:24.894Z,3.54
2023-04-10T23:20:51.394Z,3.42
2023-04-10T23:23:17.921Z,3.56
2023-04-10T23:25:44.385Z,3.41
2023-04-10T23:28:10.902Z,3.45
2023-04-10T23:30:37.388Z,3.29
2023-04-10T23:33:03.896Z,3.70
2023-04-10T23:35:30.444Z,3.51
2023-04-10T23:37:56.961Z,3.60
2023-04-10T23:40:23.430Z,3.35
2023-04-10T23:42:49.942Z,3.24
2023-04-10T23:45:16.466Z,3.22
2023-04-10T23:47:42.949Z,3.28
2023-04-10T23:50:09.893Z,3.25
2023-04-10T23:52:36.445Z,3.35
2023-04-10T23:55:03.122Z,3.33
2023-04-10T23:57:29.572Z,3.42
2023-04-10T23:59:56.056Z,3.41
